createdAt,value
2019-01-09T00:01:44.738Z,68.73
2019-01-09T00:04:14.181Z,68.73
2019-01-09T00:06:43.753Z,70.08
2019-01-09T00:09:13.296Z,69.66
2019-01-09T00:11:42.835Z,69.66
2019-01-09T00:14:12.298Z,68.98
2019-01-09T00:16:41.888Z,68.38
2019-01-09T00:19:11.339Z,68.38
2019-01-09T00:21:40.883Z,68.06
2019-01-09T00:24:10.462Z,66.77
2019-01-09T00:26:39.928Z,66.77
2019-01-09T00:29:09.434Z,66.12
2019-01-09T00:31:39.033Z,66.38
2019-01-09T00:34:08.547Z,66.11
2019-01-09T00:36:38.098Z,65.35
2019-01-09T00:39:07.879Z,65.35
2019-01-09T00:41:37.559Z,65.74
2019-01-09T00:44:07.135Z,66.34
2019-01-09T00:46:36.806Z,67.22
2019-01-09T00:49:06.294Z,67.63
2019-01-09T00:51:35.878Z,67.63
2019-01-09T00:54:05.366Z,67.57
2019-01-09T00:56:34.922Z,67.74
2019-01-09T00:59:28.966Z,67.87
2019-01-09T01:02:26.164Z,68.61
2019-01-09T01:05:32.439Z,67.42
2019-01-09T01:08:31.525Z,68.02
2019-01-09T01:11:28.795Z,66.92
2019-01-09T01:14:07.434Z,66.92
2019-01-09T01:17:19.408Z,66.80
2019-01-09T01:20:36.642Z,66.36
2019-01-09T01:23:58.473Z,65.80
2019-01-09T01:26:58.456Z,67.59
2019-01-09T01:30:15.206Z,68.26
2019-01-09T01:33:11.130Z,70.37
2019-01-09T01:36:21.178Z,73.29
2019-01-09T01:39:20.810Z,74.06
2019-01-09T01:42:35.801Z,73.50
2019-01-09T01:46:00.986Z,74.28
2019-01-09T01:49:10.328Z,77.41
2019-01-09T01:52:19.045Z,77.96
2019-01-09T01:55:18.861Z,78.80
2019-01-09T01:58:29.637Z,78.09
2019-01-09T02:02:01.493Z,79.58
2019-01-09T02:05:24.255Z,78.95
2019-01-09T02:08:27.853Z,77.64
2019-01-09T02:11:20.193Z,77.96
2019-01-09T02:14:22.568Z,78.50
2019-01-09T02:17:21.462Z,79.24
2019-01-09T02:20:41.247Z,78.95
2019-01-09T02:23:24.980Z,78.71
2019-01-09T02:26:53.787Z,78.60
2019-01-09T02:30:01.298Z,78.25
2019-01-09T02:32:34.301Z,78.82
2019-01-09T02:35:04.010Z,79.45
2019-01-09T02:37:33.663Z,79.29
2019-01-09T02:40:03.396Z,78.88
2019-01-09T02:42:33.127Z,78.51
2019-01-09T02:45:02.796Z,78.90
2019-01-09T02:47:32.548Z,77.55
2019-01-09T02:50:02.223Z,78.70
2019-01-09T02:52:32.058Z,78.45
2019-01-09T02:55:01.862Z,78.32
2019-01-09T02:57:31.572Z,78.71
2019-01-09T03:00:01.270Z,77.33
2019-01-09T03:02:31.016Z,77.58
2019-01-09T03:05:00.789Z,77.16
2019-01-09T03:07:30.545Z,77.25
2019-01-09T03:10:00.310Z,76.59
2019-01-09T03:12:30.162Z,76.94
2019-01-09T03:14:59.935Z,77.67
2019-01-09T03:17:29.686Z,77.44
2019-01-09T03:19:59.457Z,78.30
2019-01-09T03:22:29.327Z,78.64
2019-01-09T03:24:59.081Z,77.48
2019-01-09T03:27:28.935Z,77.68
2019-01-09T03:29:58.589Z,76.32
2019-01-09T03:32:28.343Z,76.33
2019-01-09T03:34:57.918Z,75.90
2019-01-09T03:37:27.689Z,75.37
2019-01-09T03:39:57.439Z,75.40
2019-01-09T03:42:27.305Z,74.60
2019-01-09T03:44:56.950Z,74.19
2019-01-09T03:47:26.687Z,75.28
2019-01-09T03:49:56.418Z,74.88
2019-01-09T03:52:26.142Z,74.76
2019-01-09T03:54:55.897Z,73.68
2019-01-09T03:57:25.547Z,74.09
2019-01-09T03:59:55.324Z,74.05
2019-01-09T04:02:25.145Z,74.58
2019-01-09T04:04:54.882Z,74.76
2019-01-09T04:07:24.566Z,74.24
2019-01-09T04:09:54.312Z,74.17
2019-01-09T04:12:24.083Z,73.31
2019-01-09T04:14:53.689Z,73.04
2019-01-09T04:17:23.541Z,74.53
2019-01-09T04:19:53.207Z,74.70
2019-01-09T04:22:22.867Z,75.61
2019-01-09T04:24:52.575Z,75.63
2019-01-09T04:27:22.273Z,74.29
2019-01-09T04:29:51.996Z,73.67
2019-01-09T04:32:21.659Z,73.51
2019-01-09T04:34:51.315Z,73.78
2019-01-09T04:37:21.080Z,74.48
2019-01-09T04:39:50.836Z,73.48
2019-01-09T04:42:20.492Z,73.88
2019-01-09T04:44:50.266Z,73.64
2019-01-09T04:47:19.977Z,73.61
2019-01-09T04:49:49.678Z,73.24
2019-01-09T04:52:19.428Z,72.90
2019-01-09T04:54:49.099Z,72.82
2019-01-09T04:57:18.771Z,73.39
2019-01-09T04:59:48.608Z,73.33
2019-01-09T05:02:18.330Z,73.29
2019-01-09T05:04:49.395Z,73.14
2019-01-09T05:07:19.437Z,73.02
2019-01-09T05:09:49.191Z,72.24
2019-01-09T05:12:18.867Z,72.09
2019-01-09T05:14:48.629Z,72.49
2019-01-09T05:17:18.396Z,72.65
2019-01-09T05:19:48.231Z,74.37
2019-01-09T05:22:17.919Z,74.77
2019-01-09T05:24:47.747Z,74.83
2019-01-09T05:27:17.408Z,74.53
2019-01-09T05:29:47.170Z,74.41
2019-01-09T05:32:16.855Z,72.89
2019-01-09T05:34:46.600Z,73.19
2019-01-09T05:37:16.489Z,72.23
2019-01-09T05:39:46.306Z,72.92
2019-01-09T05:42:16.157Z,72.53
2019-01-09T05:44:45.829Z,72.85
2019-01-09T05:47:15.677Z,73.27
2019-01-09T05:49:45.451Z,73.48
2019-01-09T05:52:15.285Z,73.32
2019-01-09T05:54:45.066Z,74.06
2019-01-09T05:57:14.925Z,74.04
2019-01-09T05:59:44.655Z,73.39
2019-01-09T06:02:14.304Z,73.80
2019-01-09T06:04:43.850Z,74.80
2019-01-09T06:07:18.267Z,74.40
2019-01-09T06:09:44.602Z,73.01
2019-01-09T06:12:14.246Z,74.21
2019-01-09T06:14:43.689Z,73.72
2019-01-09T06:17:13.269Z,72.89
2019-01-09T06:19:43.117Z,73.46
2019-01-09T06:22:12.721Z,72.79
2019-01-09T06:24:42.251Z,72.53
2019-01-09T06:27:11.801Z,71.90
2019-01-09T06:29:41.520Z,72.01
2019-01-09T06:32:11.279Z,70.51
2019-01-09T06:34:40.755Z,71.09
2019-01-09T06:37:10.333Z,70.50
2019-01-09T06:39:40.095Z,70.87
2019-01-09T06:42:09.647Z,70.36
2019-01-09T06:44:39.106Z,70.81
2019-01-09T06:47:08.662Z,70.71
2019-01-09T06:49:38.555Z,70.48
2019-01-09T06:52:08.179Z,70.73
2019-01-09T06:54:37.659Z,70.54
2019-01-09T06:57:07.249Z,70.56
2019-01-09T06:59:36.971Z,70.51
2019-01-09T07:02:06.515Z,70.00
2019-01-09T07:04:36.371Z,70.18
2019-01-09T07:07:06.046Z,69.99
2019-01-09T07:09:35.783Z,69.87
2019-01-09T07:12:05.544Z,69.94
2019-01-09T07:14:35.193Z,69.57
2019-01-09T07:17:04.738Z,68.83
2019-01-09T07:19:34.532Z,68.56
2019-01-09T07:22:04.095Z,69.14
2019-01-09T07:24:33.850Z,68.93
2019-01-09T07:27:03.515Z,69.12
2019-01-09T07:29:33.270Z,68.61
2019-01-09T07:32:02.949Z,68.00
2019-01-09T07:34:32.612Z,67.69
2019-01-09T07:37:02.466Z,67.63
2019-01-09T07:39:32.201Z,67.75
2019-01-09T07:42:01.948Z,68.00
2019-01-09T07:44:31.724Z,67.84
2019-01-09T07:47:01.299Z,68.25
2019-01-09T07:49:30.944Z,68.38
2019-01-09T07:52:00.584Z,69.09
2019-01-09T07:54:30.167Z,68.29
2019-01-09T07:56:59.805Z,68.28
2019-01-09T07:59:29.692Z,68.11
2019-01-09T08:01:59.552Z,68.14
2019-01-09T08:04:29.150Z,68.18
2019-01-09T08:07:02.332Z,68.43
2019-01-09T08:09:32.291Z,68.50
2019-01-09T08:12:04.909Z,68.26
2019-01-09T08:14:36.743Z,68.26
2019-01-09T08:17:10.263Z,67.99
2019-01-09T08:19:42.671Z,68.48
2019-01-09T08:22:12.162Z,68.08
2019-01-09T08:24:43.394Z,68.00
2019-01-09T08:27:13.876Z,66.57
2019-01-09T08:29:43.581Z,65.82
2019-01-09T08:32:18.231Z,65.71
2019-01-09T08:34:51.224Z,65.73
2019-01-09T08:37:21.432Z,64.59
2019-01-09T08:39:54.638Z,65.11
2019-01-09T08:42:24.428Z,65.31
2019-01-09T08:44:54.020Z,65.63
2019-01-09T08:47:23.603Z,65.49
2019-01-09T08:49:53.114Z,65.13
2019-01-09T08:52:22.764Z,65.20
2019-01-09T08:54:52.362Z,65.44
2019-01-09T08:57:21.977Z,65.42
2019-01-09T08:59:51.738Z,65.14
2019-01-09T09:02:21.253Z,64.99
2019-01-09T09:04:51.014Z,65.29
2019-01-09T09:07:20.799Z,65.21
2019-01-09T09:09:50.551Z,64.11
2019-01-09T09:12:20.158Z,64.36
2019-01-09T09:14:49.804Z,64.16
2019-01-09T09:17:19.437Z,64.62
2019-01-09T09:19:49.038Z,64.22
2019-01-09T09:22:18.639Z,64.97
2019-01-09T09:24:48.279Z,65.46
2019-01-09T09:27:17.954Z,65.32
2019-01-09T09:29:47.450Z,65.20
2019-01-09T09:32:17.047Z,65.30
2019-01-09T09:34:46.552Z,64.47
2019-01-09T09:37:16.101Z,64.53
2019-01-09T09:39:47.773Z,64.55
2019-01-09T09:42:17.322Z,65.06
2019-01-09T09:44:47.918Z,63.58
2019-01-09T09:47:17.497Z,63.53
2019-01-09T09:49:47.065Z,63.88
2019-01-09T09:52:16.859Z,64.11
2019-01-09T09:54:47.501Z,64.26
2019-01-09T09:57:17.048Z,63.53
2019-01-09T09:59:46.558Z,63.98
2019-01-09T10:02:16.167Z,64.18
2019-01-09T10:04:45.821Z,65.02
2019-01-09T10:07:15.483Z,65.50
2019-01-09T10:09:45.021Z,65.09
2019-01-09T10:12:14.658Z,66.84
2019-01-09T10:14:44.121Z,67.18
2019-01-09T10:17:14.046Z,67.40
2019-01-09T10:19:43.546Z,69.07
2019-01-09T10:22:13.220Z,70.69
2019-01-09T10:24:42.807Z,69.33
2019-01-09T10:27:12.777Z,68.42
2019-01-09T10:29:42.325Z,68.56
2019-01-09T10:32:11.990Z,66.69
2019-01-09T10:34:41.683Z,66.64
2019-01-09T10:37:11.308Z,66.61
2019-01-09T10:39:40.958Z,65.60
2019-01-09T10:42:10.601Z,65.01
2019-01-09T10:44:40.416Z,64.85
2019-01-09T10:47:10.138Z,65.07
2019-01-09T10:49:39.792Z,63.71
2019-01-09T10:52:09.426Z,63.19
2019-01-09T10:54:39.099Z,64.04
2019-01-09T10:57:08.778Z,63.72
2019-01-09T10:59:38.310Z,63.77
2019-01-09T11:02:07.865Z,61.47
2019-01-09T11:04:37.410Z,61.42
2019-01-09T11:07:06.994Z,61.31
2019-01-09T11:09:36.443Z,59.50
2019-01-09T11:12:05.997Z,60.75
2019-01-09T11:14:35.573Z,59.64
2019-01-09T11:17:05.066Z,57.85
2019-01-09T11:19:34.548Z,56.76
2019-01-09T11:22:04.016Z,56.89
2019-01-09T11:24:33.575Z,55.51
2019-01-09T11:27:03.105Z,54.69
2019-01-09T11:29:32.591Z,54.29
2019-01-09T11:32:02.196Z,53.46
2019-01-09T11:34:31.837Z,53.28
2019-01-09T11:37:01.489Z,51.75
2019-01-09T11:39:30.957Z,51.67
2019-01-09T11:42:00.639Z,51.29
2019-01-09T11:44:30.187Z,51.41
2019-01-09T11:46:59.858Z,52.28
2019-01-09T11:49:29.407Z,51.94
2019-01-09T11:51:58.936Z,52.36
2019-01-09T11:54:28.489Z,52.69
2019-01-09T11:56:58.065Z,51.49
2019-01-09T11:59:27.641Z,50.16
2019-01-09T12:01:57.101Z,49.19
2019-01-09T12:04:27.023Z,50.06
2019-01-09T12:06:56.623Z,50.28
2019-01-09T12:09:26.314Z,50.88
2019-01-09T12:11:55.855Z,50.14
2019-01-09T12:14:25.481Z,49.28
2019-01-09T12:16:59.970Z,48.84
2019-01-09T12:19:29.610Z,49.74
2019-01-09T12:21:59.168Z,48.57
2019-01-09T12:24:28.702Z,48.60
2019-01-09T12:26:58.286Z,48.91
2019-01-09T12:29:27.855Z,47.99
2019-01-09T12:31:57.523Z,47.48
2019-01-09T12:34:27.050Z,47.95
2019-01-09T12:36:56.418Z,46.68
2019-01-09T12:39:25.974Z,47.10
2019-01-09T12:41:55.516Z,48.15
2019-01-09T12:44:25.138Z,47.77
2019-01-09T12:46:54.698Z,48.07
2019-01-09T12:49:24.211Z,47.80
2019-01-09T12:51:53.819Z,47.84
2019-01-09T12:54:23.473Z,47.72
2019-01-09T12:56:53.069Z,48.24
2019-01-09T12:59:22.687Z,47.04
2019-01-09T13:01:52.382Z,46.54
2019-01-09T13:04:22.043Z,46.84
2019-01-09T13:06:51.696Z,46.94
2019-01-09T13:09:22.290Z,47.04
2019-01-09T13:11:52.555Z,47.87
2019-01-09T13:14:22.170Z,47.13
2019-01-09T13:16:51.830Z,46.31
2019-01-09T13:19:21.628Z,45.74
2019-01-09T13:21:51.280Z,46.06
2019-01-09T13:24:21.011Z,44.98
2019-01-09T13:26:50.633Z,44.58
2019-01-09T13:29:20.279Z,44.08
2019-01-09T13:31:49.942Z,44.76
2019-01-09T13:34:19.599Z,43.69
2019-01-09T13:36:49.255Z,43.89
2019-01-09T13:39:18.782Z,44.04
2019-01-09T13:41:48.352Z,43.66
2019-01-09T13:44:17.948Z,44.05
2019-01-09T13:46:47.574Z,44.99
2019-01-09T13:49:17.070Z,46.10
2019-01-09T13:51:46.729Z,47.04
2019-01-09T13:54:16.268Z,47.87
2019-01-09T13:56:45.810Z,47.57
2019-01-09T13:59:15.301Z,47.46
2019-01-09T14:01:45.072Z,46.83
2019-01-09T14:04:14.730Z,47.33
2019-01-09T14:06:44.483Z,47.15
2019-01-09T14:09:14.089Z,48.33
2019-01-09T14:11:43.793Z,48.08
2019-01-09T14:14:13.260Z,50.11
2019-01-09T14:16:42.896Z,51.61
2019-01-09T14:19:12.449Z,52.64
2019-01-09T14:21:42.309Z,52.84
2019-01-09T14:24:11.894Z,52.68
2019-01-09T14:26:41.502Z,52.75
2019-01-09T14:29:11.097Z,52.26
2019-01-09T14:31:40.762Z,53.69
2019-01-09T14:34:10.356Z,53.44
2019-01-09T14:36:40.004Z,52.96
2019-01-09T14:39:09.757Z,52.70
2019-01-09T14:41:39.409Z,51.90
2019-01-09T14:44:08.970Z,51.88
2019-01-09T14:46:38.620Z,51.57
2019-01-09T14:49:08.129Z,51.59
2019-01-09T14:51:43.124Z,49.46
2019-01-09T14:54:09.102Z,50.60
2019-01-09T14:56:38.816Z,50.73
2019-01-09T14:59:08.424Z,50.46
2019-01-09T15:01:38.070Z,49.98
2019-01-09T15:04:08.908Z,49.39
2019-01-09T15:06:38.968Z,49.24
2019-01-09T15:09:09.669Z,49.32
2019-01-09T15:11:39.308Z,48.69
2019-01-09T15:14:08.948Z,48.13
2019-01-09T15:16:38.596Z,48.24
2019-01-09T15:19:08.190Z,48.50
2019-01-09T15:21:37.729Z,48.10
2019-01-09T15:24:08.514Z,48.49
2019-01-09T15:26:38.451Z,48.25
2019-01-09T15:29:08.128Z,48.19
2019-01-09T15:31:37.756Z,48.16
2019-01-09T15:34:07.368Z,47.68
2019-01-09T15:36:36.966Z,48.07
2019-01-09T15:39:08.668Z,47.68
2019-01-09T15:41:38.228Z,47.87
2019-01-09T15:44:07.885Z,47.50
2019-01-09T15:46:37.459Z,47.79
2019-01-09T15:49:07.211Z,46.95
2019-01-09T15:51:36.887Z,47.59
2019-01-09T15:54:06.557Z,47.32
2019-01-09T15:56:36.284Z,47.58
2019-01-09T15:59:05.977Z,47.85
2019-01-09T16:01:35.503Z,47.10
2019-01-09T16:04:05.281Z,47.06
2019-01-09T16:06:34.935Z,47.17
2019-01-09T16:09:06.162Z,47.87
2019-01-09T16:11:35.779Z,47.82
2019-01-09T16:14:05.431Z,47.71
2019-01-09T16:16:35.062Z,47.80
2019-01-09T16:19:04.783Z,48.05
2019-01-09T16:21:34.598Z,47.84
2019-01-09T16:24:04.266Z,48.01
2019-01-09T16:26:33.903Z,48.40
2019-01-09T16:29:03.602Z,48.56
2019-01-09T16:31:40.849Z,48.83
2019-01-09T16:34:10.485Z,48.69
2019-01-09T16:36:40.166Z,48.62
2019-01-09T16:39:10.690Z,48.45
2019-01-09T16:41:40.246Z,48.18
2019-01-09T16:44:09.973Z,48.34
2019-01-09T16:46:39.649Z,47.67
2019-01-09T16:49:09.506Z,48.10
2019-01-09T16:51:39.305Z,48.46
2019-01-09T16:54:08.940Z,48.45
2019-01-09T16:56:38.565Z,48.83
2019-01-09T16:59:08.390Z,51.00
2019-01-09T17:01:38.256Z,50.87
2019-01-09T17:04:07.801Z,50.94
2019-01-09T17:06:37.438Z,49.51
2019-01-09T17:09:08.451Z,47.83
2019-01-09T17:11:37.910Z,49.75
2019-01-09T17:14:07.543Z,49.52
2019-01-09T17:16:37.168Z,50.16
2019-01-09T17:19:06.773Z,50.40
2019-01-09T17:21:36.551Z,50.00
2019-01-09T17:24:06.205Z,48.81
2019-01-09T17:26:35.826Z,48.29
2019-01-09T17:29:05.507Z,48.02
2019-01-09T17:31:35.557Z,47.58
2019-01-09T17:34:05.234Z,49.06
2019-01-09T17:36:34.886Z,47.93
2019-01-09T17:39:05.886Z,47.44
2019-01-09T17:41:35.511Z,48.13
2019-01-09T17:44:05.082Z,47.19
2019-01-09T17:46:34.639Z,49.54
2019-01-09T17:49:04.322Z,49.82
2019-01-09T17:51:34.103Z,50.85
2019-01-09T17:54:04.108Z,51.01
2019-01-09T17:56:33.792Z,51.61
2019-01-09T17:59:03.503Z,51.13
2019-01-09T18:01:33.217Z,51.70
2019-01-09T18:04:02.848Z,51.55
2019-01-09T18:06:32.525Z,50.93
2019-01-09T18:09:02.176Z,50.99
2019-01-09T18:11:31.810Z,51.50
2019-01-09T18:14:01.297Z,51.04
2019-01-09T18:16:31.370Z,51.67
2019-01-09T18:19:00.970Z,51.12
2019-01-09T18:21:30.477Z,51.20
2019-01-09T18:24:00.823Z,50.56
2019-01-09T18:26:30.519Z,50.46
2019-01-09T18:29:00.180Z,50.18
2019-01-09T18:32:02.944Z,50.99
2019-01-09T18:34:46.678Z,50.57
2019-01-09T18:38:15.860Z,50.97
2019-01-09T18:41:15.609Z,50.95
2019-01-09T18:44:08.454Z,50.57
2019-01-09T18:47:20.393Z,52.06
2019-01-09T18:50:12.486Z,51.63
2019-01-09T18:53:13.640Z,52.37
2019-01-09T18:55:43.171Z,52.20
2019-01-09T18:58:12.845Z,52.30
2019-01-09T19:00:42.504Z,52.05
2019-01-09T19:03:12.125Z,51.40
2019-01-09T19:05:41.744Z,51.81
2019-01-09T19:08:11.858Z,52.20
2019-01-09T19:10:41.432Z,51.58
2019-01-09T19:13:11.087Z,51.09
2019-01-09T19:15:41.739Z,50.66
2019-01-09T19:18:11.421Z,50.66
2019-01-09T19:20:40.889Z,51.06
2019-01-09T19:23:10.534Z,50.00
2019-01-09T19:25:40.137Z,50.44
2019-01-09T19:28:09.690Z,50.48
2019-01-09T19:30:39.472Z,50.31
2019-01-09T19:33:09.137Z,50.37
2019-01-09T19:35:38.794Z,50.80
2019-01-09T19:38:08.437Z,50.71
2019-01-09T19:40:38.089Z,51.41
2019-01-09T19:43:07.617Z,51.65
2019-01-09T19:45:37.335Z,51.44
2019-01-09T19:48:06.950Z,50.96
2019-01-09T19:50:42.469Z,51.11
2019-01-09T19:53:07.936Z,51.04
2019-01-09T19:55:37.818Z,51.22
2019-01-09T19:58:07.429Z,51.10
2019-01-09T20:00:37.115Z,50.60
2019-01-09T20:03:06.679Z,50.77
2019-01-09T20:05:36.329Z,50.61
2019-01-09T20:08:05.982Z,50.82
2019-01-09T20:10:35.659Z,51.23
2019-01-09T20:13:06.177Z,51.21
2019-01-09T20:15:36.013Z,51.55
2019-01-09T20:18:05.665Z,51.54
2019-01-09T20:20:35.278Z,51.95
2019-01-09T20:23:04.884Z,52.44
2019-01-09T20:25:34.635Z,52.90
2019-01-09T20:28:04.284Z,52.64
2019-01-09T20:30:33.942Z,52.21
2019-01-09T20:33:03.589Z,52.06
2019-01-09T20:35:33.502Z,52.11
2019-01-09T20:38:03.129Z,51.90
2019-01-09T20:40:32.831Z,51.24
2019-01-09T20:43:02.484Z,51.70
2019-01-09T20:45:32.353Z,51.14
2019-01-09T20:48:01.758Z,50.24
2019-01-09T20:50:32.070Z,50.51
2019-01-09T20:53:01.766Z,50.70
2019-01-09T20:55:31.642Z,50.46
2019-01-09T20:58:02.337Z,50.12
2019-01-09T21:00:32.115Z,49.75
2019-01-09T21:03:11.212Z,49.83
2019-01-09T21:05:43.506Z,49.58
2019-01-09T21:08:13.328Z,50.19
2019-01-09T21:10:42.990Z,50.48
2019-01-09T21:13:12.641Z,50.39
2019-01-09T21:15:42.080Z,50.68
2019-01-09T21:18:11.729Z,51.10
2019-01-09T21:20:41.280Z,50.70
2019-01-09T21:23:10.966Z,50.78
2019-01-09T21:25:40.616Z,51.70
2019-01-09T21:28:10.271Z,52.19
2019-01-09T21:30:39.858Z,52.51
2019-01-09T21:33:09.497Z,52.24
2019-01-09T21:35:39.159Z,52.37
2019-01-09T21:38:08.607Z,52.53
2019-01-09T21:40:38.251Z,52.42
2019-01-09T21:43:07.890Z,52.23
2019-01-09T21:45:37.478Z,52.62
2019-01-09T21:48:07.237Z,52.97
2019-01-09T21:50:36.898Z,53.44
2019-01-09T21:53:06.529Z,53.64
2019-01-09T21:55:36.185Z,54.00
2019-01-09T21:58:05.875Z,54.02
2019-01-09T22:00:35.410Z,53.74
2019-01-09T22:03:05.169Z,53.60
2019-01-09T22:05:34.757Z,52.54
2019-01-09T22:08:04.422Z,53.60
2019-01-09T22:10:35.845Z,54.26
2019-01-09T22:13:05.575Z,55.43
2019-01-09T22:15:35.142Z,58.44
2019-01-09T22:18:04.780Z,57.94
2019-01-09T22:20:34.447Z,56.35
2019-01-09T22:23:03.861Z,55.63
2019-01-09T22:25:33.504Z,57.15
2019-01-09T22:28:03.052Z,56.65
2019-01-09T22:30:32.724Z,57.92
2019-01-09T22:33:02.349Z,56.79
2019-01-09T22:35:41.104Z,56.17
2019-01-09T22:38:03.351Z,57.51
2019-01-09T22:40:32.989Z,56.45
2019-01-09T22:43:02.474Z,55.65
2019-01-09T22:45:31.933Z,55.18
2019-01-09T22:48:01.534Z,54.31
2019-01-09T22:50:33.398Z,53.32
2019-01-09T22:53:02.997Z,52.96
2019-01-09T22:55:32.687Z,53.17
2019-01-09T22:58:02.399Z,53.68
2019-01-09T23:00:36.542Z,53.30
2019-01-09T23:03:06.885Z,53.38
2019-01-09T23:05:36.465Z,52.58
2019-01-09T23:08:06.158Z,52.05
2019-01-09T23:10:35.839Z,52.54
2019-01-09T23:13:05.422Z,53.08
2019-01-09T23:15:35.079Z,53.40
2019-01-09T23:18:04.657Z,53.25
2019-01-09T23:20:34.298Z,54.03
2019-01-09T23:23:03.850Z,54.35
2019-01-09T23:25:33.510Z,53.71
2019-01-09T23:28:03.045Z,56.33
2019-01-09T23:30:32.695Z,59.29
2019-01-09T23:33:02.292Z,59.38
2019-01-09T23:35:31.941Z,59.19
2019-01-09T23:38:01.571Z,58.71
2019-01-09T23:40:31.270Z,57.72
2019-01-09T23:43:00.818Z,56.23
2019-01-09T23:45:30.449Z,55.56
2019-01-09T23:48:00.143Z,54.89
2019-01-09T23:50:29.808Z,54.19
2019-01-09T23:52:59.469Z,53.57
2019-01-09T23:55:29.115Z,54.40
2019-01-09T23:57:58.644Z,54.90
